createdAt,value
2022-08-07T00:00:25.456Z,99779.88
2022-08-07T00:02:53.566Z,99781.81
2022-08-07T00:05:23.625Z,99786.25
2022-08-07T00:07:59.821Z,99792.69
2022-08-07T00:10:30.771Z,99798.31
2022-08-07T00:13:01.814Z,99797.38
2022-08-07T00:15:38.360Z,99799.22
2022-08-07T00:18:19.667Z,99803.44
2022-08-07T00:20:54.503Z,99796.75
2022-08-07T00:23:21.856Z,99822.50
2022-08-07T00:25:59.005Z,99816.69
2022-08-07T00:28:33.440Z,99829.75
2022-08-07T00:31:06.249Z,99832.06
2022-08-07T00:33:40.167Z,99837.50
2022-08-07T00:36:08.399Z,99830.75
2022-08-07T00:38:36.853Z,99837.72
2022-08-07T00:41:10.091Z,99829.50
2022-08-07T00:43:59.506Z,99834.56
2022-08-07T00:46:30.179Z,99843.19
2022-08-07T00:49:02.111Z,99850.63
2022-08-07T00:51:58.342Z,99848.75
2022-08-07T00:54:17.830Z,99853.41
2022-08-07T00:56:49.784Z,99860.06
2022-08-07T00:59:35.156Z,99865.91
2022-08-07T01:02:14.171Z,99861.16
2022-08-07T01:04:54.574Z,99870.03
2022-08-07T01:07:27.593Z,99868.44
2022-08-07T01:10:05.888Z,99884.63
2022-08-07T01:12:39.465Z,99884.63
2022-08-07T01:15:21.601Z,99876.78
2022-08-07T01:17:49.289Z,99876.78
2022-08-07T01:20:17.483Z,99869.63
2022-08-07T01:22:54.199Z,99879.63
2022-08-07T01:25:53.996Z,99880.34
2022-08-07T01:28:20.326Z,99877.16
2022-08-07T01:30:51.222Z,99877.94
2022-08-07T01:33:19.819Z,99881.28
2022-08-07T01:35:53.727Z,99883.22
2022-08-07T01:38:24.841Z,99880.53
2022-08-07T01:40:54.867Z,99868.72
2022-08-07T01:43:22.833Z,99881.66
2022-08-07T01:45:54.384Z,99879.31
2022-08-07T01:48:30.242Z,99890.56
2022-08-07T01:51:24.444Z,99893.81
2022-08-07T01:54:09.206Z,99909.63
2022-08-07T01:56:40.094Z,99912.91
2022-08-07T01:59:17.781Z,99912.75
2022-08-07T02:02:02.836Z,99917.31
2022-08-07T02:04:55.866Z,99930.06
2022-08-07T02:07:36.176Z,99932.78
2022-08-07T02:10:14.565Z,99944.72
2022-08-07T02:12:46.330Z,99952.78
2022-08-07T02:15:14.573Z,99944.25
2022-08-07T02:17:49.441Z,99944.44
2022-08-07T02:20:23.951Z,99952.03
2022-08-07T02:22:55.135Z,99946.75
2022-08-07T02:26:10.532Z,99945.22
2022-08-07T02:28:11.880Z,99949.97
2022-08-07T02:30:39.775Z,99959.81
2022-08-07T02:33:10.406Z,99952.38
2022-08-07T02:36:30.569Z,99961.38
2022-08-07T02:38:31.842Z,99957.63
2022-08-07T02:41:00.634Z,99949.66
2022-08-07T02:43:28.061Z,99952.03
2022-08-07T02:46:01.731Z,99963.06
2022-08-07T02:48:30.302Z,99966.97
2022-08-07T02:50:59.574Z,99961.53
2022-08-07T02:53:31.446Z,99973.41
2022-08-07T02:56:17.568Z,99976.84
2022-08-07T02:58:50.164Z,99984.13
2022-08-07T03:01:35.499Z,99983.28
2022-08-07T03:04:07.610Z,99985.13
2022-08-07T03:06:40.445Z,99990.75
2022-08-07T03:09:11.240Z,99993.47
2022-08-07T03:11:51.508Z,99996.88
2022-08-07T03:14:22.377Z,99998.91
2022-08-07T03:16:50.188Z,100000.91
2022-08-07T03:19:20.346Z,100008.38
2022-08-07T03:21:50.574Z,100008.22
2022-08-07T03:24:26.890Z,100007.53
2022-08-07T03:26:59.712Z,100000.38
2022-08-07T03:29:38.390Z,100014.81
2022-08-07T03:32:13.362Z,100013.28
2022-08-07T03:34:47.497Z,100007.28
2022-08-07T03:37:37.382Z,100021.19
2022-08-07T03:40:15.699Z,100023.19
2022-08-07T03:42:44.561Z,100027.94
2022-08-07T03:45:12.230Z,100030.66
2022-08-07T03:47:58.158Z,100026.94
2022-08-07T03:50:28.764Z,100041.16
2022-08-07T03:52:58.773Z,100035.88
2022-08-07T03:55:53.361Z,100038.72
2022-08-07T03:59:05.128Z,100038.03
2022-08-07T04:01:03.628Z,100047.75
2022-08-07T04:03:49.991Z,100039.75
2022-08-07T04:06:38.025Z,100047.19
2022-08-07T04:09:08.471Z,100056.38
2022-08-07T04:12:23.692Z,100060.09
2022-08-07T04:14:38.859Z,100061.81
2022-08-07T04:17:19.841Z,100072.69
2022-08-07T04:19:52.271Z,100071.81
2022-08-07T04:22:23.573Z,100073.13
2022-08-07T04:24:58.092Z,100069.56
2022-08-07T04:27:26.675Z,100072.13
2022-08-07T04:30:01.446Z,100087.28
2022-08-07T04:32:34.428Z,100092.03
2022-08-07T04:35:05.582Z,100089.69
2022-08-07T04:38:02.859Z,100093.41
2022-08-07T04:40:21.467Z,100098.84
2022-08-07T04:42:54.068Z,100109.25
2022-08-07T04:45:57.542Z,100107.22
2022-08-07T04:48:28.030Z,100099.78
2022-08-07T04:51:05.934Z,100106.41
2022-08-07T04:54:11.988Z,100116.25
2022-08-07T04:58:09.708Z,100129.53
2022-08-07T05:00:11.169Z,100128.22
2022-08-07T05:02:39.503Z,100127.22
2022-08-07T05:05:53.314Z,100149.34
2022-08-07T05:08:02.721Z,100140.06
2022-08-07T05:10:41.902Z,100150.94
2022-08-07T05:14:53.825Z,100146.03
2022-08-07T05:16:04.946Z,100157.06
2022-08-07T05:18:45.414Z,100156.75
2022-08-07T05:21:14.855Z,100169.91
2022-08-07T05:23:45.857Z,100164.28
2022-08-07T05:26:23.617Z,100165.56
2022-08-07T05:28:56.361Z,100165.63
2022-08-07T05:31:34.557Z,100169.16
2022-08-07T05:34:05.870Z,100179.91
2022-08-07T05:36:40.478Z,100172.47
2022-08-07T05:40:04.856Z,100188.25
2022-08-07T05:42:01.750Z,100184.53
2022-08-07T05:44:33.772Z,100189.66
2022-08-07T05:47:01.930Z,100197.94
2022-08-07T05:49:49.884Z,100180.44
2022-08-07T05:52:20.718Z,100181.53
2022-08-07T05:55:07.283Z,100189.06
2022-08-07T05:57:42.381Z,100183.50
2022-08-07T06:00:16.121Z,100197.00
2022-08-07T06:02:47.798Z,100197.69
2022-08-07T06:05:15.589Z,100202.38
2022-08-07T06:08:29.276Z,100203.69
2022-08-07T06:10:31.510Z,100208.13
2022-08-07T06:13:00.153Z,100212.53
2022-08-07T06:15:39.015Z,100210.91
2022-08-07T06:18:12.061Z,100206.16
2022-08-07T06:20:49.610Z,100206.53
2022-08-07T06:24:37.816Z,100210.00
2022-08-07T06:26:15.420Z,100209.44
2022-08-07T06:28:52.775Z,100212.28
2022-08-07T06:31:20.615Z,100217.13
2022-08-07T06:33:51.621Z,100220.16
2022-08-07T06:36:35.019Z,100220.88
2022-08-07T06:40:16.543Z,100223.63
2022-08-07T06:42:01.952Z,100220.03
2022-08-07T06:44:34.221Z,100231.47
2022-08-07T06:47:12.075Z,100222.66
2022-08-07T06:49:52.486Z,100223.19
2022-08-07T06:52:31.918Z,100224.97
2022-08-07T06:55:32.466Z,100226.03
2022-08-07T06:58:14.202Z,100225.34
2022-08-07T07:00:44.556Z,100220.09
2022-08-07T07:03:13.882Z,100224.91
2022-08-07T07:06:03.808Z,100221.38
2022-08-07T07:08:33.180Z,100226.03
2022-08-07T07:11:01.473Z,100234.56
2022-08-07T07:13:58.340Z,100222.91
2022-08-07T07:16:31.054Z,100229.09
2022-08-07T07:19:04.140Z,100235.13
2022-08-07T07:22:11.762Z,100230.47
2022-08-07T07:24:42.926Z,100230.09
2022-08-07T07:27:25.886Z,100236.97
2022-08-07T07:30:09.929Z,100233.13
2022-08-07T07:32:41.178Z,100242.03
2022-08-07T07:35:11.195Z,100251.88
2022-08-07T07:37:47.256Z,100252.69
2022-08-07T07:40:27.877Z,100250.25
2022-08-07T07:42:56.712Z,100251.25
2022-08-07T07:46:36.664Z,100256.69
2022-08-07T07:48:34.871Z,100252.50
2022-08-07T07:51:07.501Z,100259.34
2022-08-07T07:53:39.768Z,100254.88
2022-08-07T07:56:30.219Z,100258.19
2022-08-07T07:59:06.098Z,100254.47
2022-08-07T08:02:05.084Z,100251.97
2022-08-07T08:04:25.470Z,100253.41
2022-08-07T08:06:54.240Z,100251.59
2022-08-07T08:09:23.384Z,100267.09
2022-08-07T08:12:01.959Z,100255.28
2022-08-07T08:14:36.406Z,100255.47
2022-08-07T08:18:17.503Z,100246.63
2022-08-07T08:20:19.948Z,100260.13
2022-08-07T08:23:08.135Z,100270.16
2022-08-07T08:25:56.229Z,100270.22
2022-08-07T08:28:38.686Z,100274.31
2022-08-07T08:31:15.759Z,100275.84
2022-08-07T08:33:49.777Z,100272.50
2022-08-07T08:36:25.436Z,100267.53
2022-08-07T08:38:54.231Z,100263.09
2022-08-07T08:41:31.594Z,100257.78
2022-08-07T08:44:33.205Z,100261.38
2022-08-07T08:47:19.865Z,100257.28
2022-08-07T08:50:05.714Z,100260.31
2022-08-07T08:52:56.218Z,100255.38
2022-08-07T08:55:54.831Z,100266.47
2022-08-07T08:58:28.333Z,100263.72
2022-08-07T09:01:19.385Z,100267.16
2022-08-07T09:03:58.660Z,100268.31
2022-08-07T09:06:47.820Z,100263.66
2022-08-07T09:09:21.047Z,100272.03
2022-08-07T09:12:19.983Z,100255.44
2022-08-07T09:16:24.320Z,100250.31
2022-08-07T09:17:59.670Z,100256.09
2022-08-07T09:20:58.623Z,100251.34
2022-08-07T09:24:31.272Z,100251.25
2022-08-07T09:26:47.925Z,100254.63
2022-08-07T09:30:03.760Z,100247.63
2022-08-07T09:32:38.802Z,100246.53
2022-08-07T09:36:05.383Z,100243.31
2022-08-07T09:38:14.392Z,100242.81
2022-08-07T09:41:00.184Z,100247.94
2022-08-07T09:44:03.033Z,100235.09
2022-08-07T09:47:25.279Z,100238.66
2022-08-07T09:50:02.026Z,100234.03
2022-08-07T09:52:34.228Z,100233.78
2022-08-07T09:55:02.272Z,100229.31
2022-08-07T09:57:30.208Z,100221.53
2022-08-07T10:00:08.351Z,100223.72
2022-08-07T10:02:55.483Z,100225.34
2022-08-07T10:05:59.623Z,100219.31
2022-08-07T10:08:25.920Z,100220.75
2022-08-07T10:11:16.994Z,100211.69
2022-08-07T10:14:01.360Z,100232.16
2022-08-07T10:16:38.078Z,100217.06
2022-08-07T10:19:19.141Z,100216.00
2022-08-07T10:22:15.340Z,100220.91
2022-08-07T10:24:46.532Z,100211.75
2022-08-07T10:27:20.473Z,100223.09
2022-08-07T10:29:59.434Z,100212.50
2022-08-07T10:32:36.702Z,100202.09
2022-08-07T10:35:20.504Z,100195.16
2022-08-07T10:38:21.838Z,100200.66
2022-08-07T10:40:56.127Z,100202.16
2022-08-07T10:43:49.665Z,100202.63
2022-08-07T10:46:25.134Z,100209.53
2022-08-07T10:48:55.883Z,100203.19
2022-08-07T10:51:39.619Z,100200.25
2022-08-07T10:54:42.729Z,100195.03
2022-08-07T10:57:39.405Z,100204.34
2022-08-07T11:00:36.340Z,100185.38
2022-08-07T11:03:03.425Z,100194.84
2022-08-07T11:05:57.647Z,100185.38
2022-08-07T11:09:04.411Z,100195.25
2022-08-07T11:11:51.955Z,100187.09
2022-08-07T11:15:00.436Z,100186.75
2022-08-07T11:17:42.711Z,100182.66
2022-08-07T11:20:16.402Z,100174.53
2022-08-07T11:23:03.279Z,100178.31
2022-08-07T11:25:36.088Z,100165.66
2022-08-07T11:28:17.573Z,100169.91
2022-08-07T11:30:47.619Z,100166.56
2022-08-07T11:33:53.832Z,100158.72
2022-08-07T11:36:25.455Z,100158.88
2022-08-07T11:38:58.359Z,100152.16
2022-08-07T11:42:00.414Z,100148.81
2022-08-07T11:44:40.157Z,100164.66
2022-08-07T11:47:29.713Z,100148.63
2022-08-07T11:50:32.462Z,100142.06
2022-08-07T11:53:21.913Z,100148.19
2022-08-07T11:56:26.769Z,100137.13
2022-08-07T12:00:09.974Z,100136.22
2022-08-07T12:02:01.369Z,100130.31
2022-08-07T12:04:37.170Z,100128.06
2022-08-07T12:07:39.032Z,100122.81
2022-08-07T12:10:19.561Z,100131.38
2022-08-07T12:12:53.256Z,100130.81
2022-08-07T12:15:45.983Z,100129.81
2022-08-07T12:18:29.828Z,100126.28
2022-08-07T12:20:57.834Z,100116.34
2022-08-07T12:24:06.403Z,100109.59
2022-08-07T12:26:23.437Z,100117.50
2022-08-07T12:29:03.623Z,100102.84
2022-08-07T12:32:01.755Z,100102.78
2022-08-07T12:34:31.767Z,100108.97
2022-08-07T12:36:59.688Z,100107.47
2022-08-07T12:39:43.239Z,100110.63
2022-08-07T12:42:13.504Z,100105.41
2022-08-07T12:44:44.995Z,100091.97
2022-08-07T12:47:27.129Z,100102.59
2022-08-07T12:50:04.718Z,100100.78
2022-08-07T12:52:47.807Z,100092.56
2022-08-07T12:55:40.665Z,100089.44
2022-08-07T12:58:12.903Z,100087.13
2022-08-07T13:01:00.158Z,100075.66
2022-08-07T13:03:55.059Z,100077.19
2022-08-07T13:07:01.202Z,100063.66
2022-08-07T13:10:37.507Z,100070.81
2022-08-07T13:12:52.552Z,100069.38
2022-08-07T13:15:29.334Z,100070.25
2022-08-07T13:18:26.023Z,100052.88
2022-08-07T13:21:12.232Z,100058.72
2022-08-07T13:24:04.742Z,100052.78
2022-08-07T13:26:51.189Z,100062.28
2022-08-07T13:29:26.853Z,100063.78
2022-08-07T13:32:23.696Z,100065.25
2022-08-07T13:34:54.590Z,100070.56
2022-08-07T13:37:32.103Z,100073.75
2022-08-07T13:40:35.451Z,100066.56
2022-08-07T13:42:54.870Z,100053.19
2022-08-07T13:46:20.685Z,100062.09
2022-08-07T13:48:27.565Z,100033.72
2022-08-07T13:51:01.433Z,100033.97
2022-08-07T13:53:36.031Z,100033.78
2022-08-07T13:56:35.638Z,100033.09
2022-08-07T13:59:12.088Z,100038.84
2022-08-07T14:01:59.395Z,100029.28
2022-08-07T14:04:35.447Z,100018.72
2022-08-07T14:07:09.206Z,100034.56
2022-08-07T14:10:02.332Z,100019.50
2022-08-07T14:12:41.440Z,100016.81
2022-08-07T14:15:16.650Z,99997.31
2022-08-07T14:18:12.965Z,99992.06
2022-08-07T14:22:40.945Z,99986.97
2022-08-07T14:23:59.551Z,99978.72
2022-08-07T14:26:29.844Z,99980.38
2022-08-07T14:29:08.625Z,99983.53
2022-08-07T14:31:56.110Z,99967.25
2022-08-07T14:34:29.564Z,99971.50
2022-08-07T14:36:59.434Z,99967.28
2022-08-07T14:40:16.377Z,99961.38
2022-08-07T14:42:23.251Z,99968.97
2022-08-07T14:44:59.757Z,99956.25
2022-08-07T14:47:31.477Z,99959.66
2022-08-07T14:50:05.215Z,99946.75
2022-08-07T14:52:35.983Z,99943.81
2022-08-07T14:55:05.586Z,99941.44
2022-08-07T14:57:58.648Z,99934.47
2022-08-07T15:00:30.406Z,99941.91
2022-08-07T15:02:59.279Z,99927.91
2022-08-07T15:08:21.858Z,99938.03
2022-08-07T15:11:04.321Z,99938.69
2022-08-07T15:13:36.812Z,99931.47
2022-08-07T15:18:55.889Z,99933.38
2022-08-07T15:21:44.023Z,99936.56
2022-08-07T15:25:15.013Z,99935.94
2022-08-07T15:27:12.081Z,99931.25
2022-08-07T15:30:09.145Z,99940.16
2022-08-07T15:32:40.072Z,99936.56
2022-08-07T15:35:19.803Z,99932.53
2022-08-07T15:38:17.659Z,99927.44
2022-08-07T15:41:23.094Z,99921.44
2022-08-07T15:43:56.354Z,99913.63
2022-08-07T15:49:16.307Z,99927.03
2022-08-07T15:54:26.487Z,99922.38
2022-08-07T15:56:59.026Z,99918.56
2022-08-07T15:59:39.225Z,99916.69
2022-08-07T16:02:15.218Z,99926.16
2022-08-07T16:04:43.979Z,99930.81
2022-08-07T16:08:33.332Z,99937.59
2022-08-07T16:10:14.768Z,99941.63
2022-08-07T16:13:17.797Z,99939.75
2022-08-07T16:16:06.389Z,99942.09
2022-08-07T16:18:49.836Z,99942.72
2022-08-07T16:22:01.419Z,99946.09
2022-08-07T16:24:52.674Z,99944.34
2022-08-07T16:27:25.971Z,99950.59
2022-08-07T16:30:30.240Z,99948.25
2022-08-07T16:34:02.860Z,99944.19
2022-08-07T16:36:01.260Z,99945.41
2022-08-07T16:39:00.975Z,99947.00
2022-08-07T16:41:54.061Z,99955.38
2022-08-07T16:44:47.276Z,99949.97
2022-08-07T16:47:16.568Z,99960.38
2022-08-07T16:50:35.887Z,99971.16
2022-08-07T16:54:02.606Z,99972.28
2022-08-07T16:56:01.721Z,99983.41
2022-08-07T16:59:10.769Z,99976.47
2022-08-07T17:01:41.730Z,99988.63
2022-08-07T17:04:12.463Z,99992.75
2022-08-07T17:07:03.305Z,99991.38
2022-08-07T17:10:05.165Z,99994.03
2022-08-07T17:12:48.633Z,99997.31
2022-08-07T17:15:20.576Z,100009.28
2022-08-07T17:17:47.981Z,100013.66
2022-08-07T17:20:20.830Z,100015.06
2022-08-07T17:23:13.064Z,100013.31
2022-08-07T17:25:51.896Z,100018.97
2022-08-07T17:28:31.071Z,100007.72
2022-08-07T17:31:18.384Z,100018.00
2022-08-07T17:34:15.093Z,100017.28
2022-08-07T17:36:57.448Z,100019.13
2022-08-07T17:39:58.688Z,100030.66
2022-08-07T17:42:36.257Z,100027.16
2022-08-07T17:45:43.610Z,100027.03
2022-08-07T17:48:30.671Z,100034.31
2022-08-07T17:51:21.318Z,100032.53
2022-08-07T17:54:00.772Z,100039.22
2022-08-07T17:56:35.269Z,100036.38
2022-08-07T17:59:09.057Z,100033.38
2022-08-07T18:01:39.584Z,100037.06
2022-08-07T18:04:16.232Z,100043.34
2022-08-07T18:07:19.301Z,100049.59
2022-08-07T18:10:05.133Z,100044.03
2022-08-07T18:12:40.747Z,100051.66
2022-08-07T18:15:37.405Z,100048.63
2022-08-07T18:18:47.643Z,100046.66
2022-08-07T18:21:42.211Z,100049.97
2022-08-07T18:23:58.617Z,100054.50
2022-08-07T18:26:42.835Z,100048.91
2022-08-07T18:30:06.027Z,100054.13
2022-08-07T18:32:38.166Z,100044.59
2022-08-07T18:35:10.389Z,100052.97
2022-08-07T18:38:55.947Z,100057.16
2022-08-07T18:41:08.028Z,100052.22
2022-08-07T18:43:57.387Z,100061.16
2022-08-07T18:46:37.011Z,100070.59
2022-08-07T18:50:06.036Z,100068.06
2022-08-07T18:52:38.023Z,100074.56
2022-08-07T18:55:42.319Z,100077.88
2022-08-07T18:58:00.546Z,100082.78
2022-08-07T19:00:59.274Z,100086.44
2022-08-07T19:03:42.736Z,100077.41
2022-08-07T19:06:16.844Z,100085.50
2022-08-07T19:09:09.336Z,100081.81
2022-08-07T19:12:05.724Z,100077.91
2022-08-07T19:14:42.465Z,100077.78
2022-08-07T19:17:55.725Z,100091.13
2022-08-07T19:20:32.741Z,100097.34
2022-08-07T19:23:57.227Z,100084.56
2022-08-07T19:26:25.142Z,100087.38
2022-08-07T19:31:04.230Z,100086.00
2022-08-07T19:32:08.237Z,100088.91
2022-08-07T19:34:38.808Z,100093.72
2022-08-07T19:37:10.035Z,100096.81
2022-08-07T19:39:57.963Z,100109.31
2022-08-07T19:42:31.165Z,100109.53
2022-08-07T19:45:08.522Z,100103.03
2022-08-07T19:47:38.678Z,100098.00
2022-08-07T19:50:43.923Z,100104.13
2022-08-07T19:52:59.023Z,100104.19
2022-08-07T19:55:57.604Z,100105.56
2022-08-07T19:58:18.326Z,100111.38
2022-08-07T20:00:56.608Z,100120.09
2022-08-07T20:03:34.959Z,100119.78
2022-08-07T20:06:05.436Z,100123.03
2022-08-07T20:08:35.906Z,100121.31
2022-08-07T20:11:09.767Z,100119.28
2022-08-07T20:13:45.566Z,100116.91
2022-08-07T20:16:26.152Z,100119.25
2022-08-07T20:19:10.048Z,100123.03
2022-08-07T20:21:47.765Z,100127.66
2022-08-07T20:24:35.854Z,100125.78
2022-08-07T20:27:11.722Z,100129.69
2022-08-07T20:29:56.780Z,100123.41
2022-08-07T20:32:36.211Z,100124.75
2022-08-07T20:35:10.321Z,100129.72
2022-08-07T20:37:55.696Z,100126.28
2022-08-07T20:40:31.298Z,100131.09
2022-08-07T20:43:02.319Z,100137.03
2022-08-07T20:46:25.921Z,100136.72
2022-08-07T20:48:29.862Z,100135.34
2022-08-07T20:50:59.994Z,100152.94
2022-08-07T20:54:02.992Z,100146.97
2022-08-07T20:56:16.638Z,100145.44
2022-08-07T20:58:53.827Z,100148.84
2022-08-07T21:01:23.155Z,100149.69
2022-08-07T21:04:18.589Z,100162.25
2022-08-07T21:06:46.546Z,100151.84
2022-08-07T21:09:24.128Z,100157.13
2022-08-07T21:11:55.724Z,100163.44
2022-08-07T21:14:32.121Z,100156.13
2022-08-07T21:18:00.741Z,100156.13
2022-08-07T21:19:50.683Z,100155.78
2022-08-07T21:22:28.901Z,100155.78
2022-08-07T21:25:12.507Z,100156.13
2022-08-07T21:27:49.749Z,100159.88
2022-08-07T21:30:24.365Z,100153.56
2022-08-07T21:33:00.193Z,100153.41
2022-08-07T21:36:05.087Z,100160.53
2022-08-07T21:38:29.356Z,100154.06
2022-08-07T21:40:56.593Z,100153.41
2022-08-07T21:43:47.231Z,100157.81
2022-08-07T21:46:24.662Z,100156.78
2022-08-07T21:49:03.423Z,100160.19
2022-08-07T21:51:51.104Z,100155.25
2022-08-07T21:54:27.800Z,100148.94
2022-08-07T21:57:30.897Z,100157.13
2022-08-07T22:00:21.959Z,100159.31
2022-08-07T22:03:06.340Z,100163.56
2022-08-07T22:05:44.304Z,100165.97
2022-08-07T22:08:18.827Z,100162.38
2022-08-07T22:10:53.491Z,100164.44
2022-08-07T22:13:24.522Z,100164.78
2022-08-07T22:16:39.514Z,100161.88
2022-08-07T22:19:18.130Z,100160.19
2022-08-07T22:22:20.858Z,100158.78
2022-08-07T22:24:54.706Z,100153.97
2022-08-07T22:28:03.172Z,100160.44
2022-08-07T22:30:19.257Z,100156.72
2022-08-07T22:33:01.718Z,100156.50
2022-08-07T22:35:39.572Z,100156.13
2022-08-07T22:38:14.131Z,100159.88
2022-08-07T22:40:54.846Z,100164.63
2022-08-07T22:43:42.473Z,100165.81
2022-08-07T22:46:47.117Z,100164.97
2022-08-07T22:49:11.268Z,100180.50
2022-08-07T22:52:01.597Z,100188.47
2022-08-07T22:54:49.053Z,100196.78
2022-08-07T22:57:37.420Z,100191.41
2022-08-07T23:00:28.496Z,100197.19
2022-08-07T23:03:14.919Z,100198.69
2022-08-07T23:06:09.519Z,100196.44
2022-08-07T23:08:45.843Z,100196.06
2022-08-07T23:11:28.062Z,100202.50
2022-08-07T23:14:22.816Z,100200.66
2022-08-07T23:16:59.026Z,100198.47
2022-08-07T23:20:04.050Z,100195.19
2022-08-07T23:22:31.800Z,100187.78
2022-08-07T23:24:59.228Z,100206.31
2022-08-07T23:28:21.347Z,100196.75
2022-08-07T23:31:05.646Z,100197.91
2022-08-07T23:34:34.105Z,100197.22
2022-08-07T23:36:39.164Z,100184.94
2022-08-07T23:39:33.248Z,100186.66
2022-08-07T23:42:08.357Z,100193.25
2022-08-07T23:44:54.355Z,100203.28
2022-08-07T23:47:42.229Z,100192.38
2022-08-07T23:50:23.078Z,100190.16
2022-08-07T23:53:08.419Z,100189.44
2022-08-07T23:55:53.197Z,100187.75
2022-08-07T23:58:25.584Z,100187.03
